Аэропорт: Омск-Центральный. Омск

ICAO: UNOO

METAR:
2020-08-13 12:00:00
UNOO 131200Z 33007MPS 6000 -SHRA BKN010 BKN033CB 15/14 Q1001 R25/290050 NOSIG RMK QFE743
METAR:
2020-08-13 10:50:00
TAF UNOO 131050Z 1312/1412 32006G12MPS 9999 BKN010 BKN030CB TEMPO 1312/1324 3100 -SHRA